createdAt,value
2022-10-05T00:00:27.740Z,54.33
2022-10-05T00:02:56.025Z,54.58
2022-10-05T00:05:33.578Z,54.66
2022-10-05T00:08:14.225Z,54.30
2022-10-05T00:10:43.304Z,54.54
2022-10-05T00:13:31.553Z,54.52
2022-10-05T00:16:12.827Z,54.52
2022-10-05T00:18:40.556Z,54.61
2022-10-05T00:21:21.246Z,54.81
2022-10-05T00:23:49.414Z,54.66
2022-10-05T00:26:26.982Z,54.85
2022-10-05T00:28:55.171Z,54.48
2022-10-05T00:31:32.534Z,54.57
2022-10-05T00:33:59.755Z,54.50
2022-10-05T00:36:26.952Z,54.77
2022-10-05T00:38:55.251Z,54.54
2022-10-05T00:41:50.783Z,54.42
2022-10-05T00:44:41.082Z,54.72
2022-10-05T00:47:55.295Z,54.58
2022-10-05T00:50:42.622Z,54.84
2022-10-05T00:53:36.527Z,54.83
2022-10-05T00:56:16.587Z,54.78
2022-10-05T00:59:30.117Z,54.95
2022-10-05T01:02:09.190Z,54.84
2022-10-05T01:04:53.270Z,54.70
2022-10-05T01:08:00.859Z,55.01
2022-10-05T01:10:54.608Z,55.00
2022-10-05T01:14:06.452Z,55.06
2022-10-05T01:16:55.018Z,54.94
2022-10-05T01:20:02.163Z,54.94
2022-10-05T01:22:32.163Z,55.07
2022-10-05T01:25:40.357Z,55.05
2022-10-05T01:28:58.340Z,54.96
2022-10-05T01:31:48.879Z,54.93
2022-10-05T01:34:30.866Z,55.04
2022-10-05T01:37:20.514Z,54.80
2022-10-05T01:40:16.868Z,55.20
2022-10-05T01:43:20.869Z,55.22
2022-10-05T01:46:32.014Z,55.16
2022-10-05T01:49:44.938Z,55.35
2022-10-05T01:52:42.948Z,55.92
2022-10-05T01:55:29.734Z,55.63
2022-10-05T01:58:47.408Z,55.62
2022-10-05T02:01:58.739Z,55.71
2022-10-05T02:05:01.102Z,55.83
2022-10-05T02:07:48.102Z,56.12
2022-10-05T02:10:39.566Z,55.94
2022-10-05T02:13:33.127Z,55.76
2022-10-05T02:16:35.869Z,55.58
2022-10-05T02:19:32.070Z,56.08
2022-10-05T02:22:07.565Z,55.54
2022-10-05T02:24:55.619Z,55.76
2022-10-05T02:27:30.975Z,55.48
2022-10-05T02:30:12.805Z,55.67
2022-10-05T02:33:11.967Z,55.77
2022-10-05T02:35:39.279Z,55.56
2022-10-05T02:38:41.103Z,55.70
2022-10-05T02:41:28.115Z,55.79
2022-10-05T02:44:30.598Z,55.90
2022-10-05T02:47:23.406Z,55.92
2022-10-05T02:50:35.004Z,55.70
2022-10-05T02:53:40.487Z,55.67
2022-10-05T02:56:43.711Z,55.46
2022-10-05T02:59:44.865Z,55.86
2022-10-05T03:02:44.219Z,56.06
2022-10-05T03:05:20.687Z,56.20
2022-10-05T03:08:12.058Z,56.47
2022-10-05T03:10:56.800Z,56.24
2022-10-05T03:14:06.861Z,56.29
2022-10-05T03:17:17.999Z,56.27
2022-10-05T03:20:25.091Z,56.30
2022-10-05T03:23:01.267Z,56.63
2022-10-05T03:26:02.525Z,56.02
2022-10-05T03:28:56.257Z,56.35
2022-10-05T03:31:41.198Z,55.86
2022-10-05T03:34:12.421Z,55.84
2022-10-05T03:37:11.282Z,55.80
2022-10-05T03:40:08.432Z,56.04
2022-10-05T03:42:54.673Z,56.15
2022-10-05T03:45:46.823Z,55.95
2022-10-05T03:48:34.729Z,56.02
2022-10-05T03:51:10.120Z,56.30
2022-10-05T03:54:22.496Z,56.21
2022-10-05T03:57:15.773Z,56.48
2022-10-05T04:00:17.558Z,56.19
2022-10-05T04:03:15.634Z,56.29
2022-10-05T04:06:03.314Z,56.42
2022-10-05T04:08:56.528Z,56.36
2022-10-05T04:12:05.728Z,56.61
2022-10-05T04:14:44.766Z,56.81
2022-10-05T04:17:29.530Z,56.77
2022-10-05T04:20:06.907Z,56.88
2022-10-05T04:22:48.603Z,56.92
2022-10-05T04:25:35.204Z,56.94
2022-10-05T04:28:15.389Z,57.09
2022-10-05T04:30:48.766Z,56.88
2022-10-05T04:33:16.053Z,56.94
2022-10-05T04:36:01.964Z,56.88
2022-10-05T04:38:59.581Z,56.83
2022-10-05T04:41:42.343Z,56.83
2022-10-05T04:44:43.911Z,56.62
2022-10-05T04:47:23.449Z,56.77
2022-10-05T04:50:07.846Z,56.86
2022-10-05T04:53:18.629Z,56.94
2022-10-05T04:56:03.785Z,57.08
2022-10-05T04:58:42.525Z,56.96
2022-10-05T05:01:41.112Z,57.08
2022-10-05T05:04:36.601Z,57.30
2022-10-05T05:07:22.737Z,57.23
2022-10-05T05:10:24.246Z,57.47
2022-10-05T05:13:07.132Z,57.58
2022-10-05T05:15:57.643Z,57.45
2022-10-05T05:18:46.398Z,57.63
2022-10-05T05:21:40.071Z,57.50
2022-10-05T05:24:34.870Z,57.36
2022-10-05T05:27:22.530Z,57.29
2022-10-05T05:30:11.609Z,57.34
2022-10-05T05:33:15.783Z,57.40
2022-10-05T05:35:57.572Z,57.35
2022-10-05T05:38:58.254Z,57.37
2022-10-05T05:42:04.276Z,57.41
2022-10-05T05:44:43.781Z,57.54
2022-10-05T05:47:22.091Z,57.53
2022-10-05T05:50:05.591Z,57.48
2022-10-05T05:52:46.143Z,57.42
2022-10-05T05:55:19.764Z,57.26
2022-10-05T05:58:00.640Z,57.27
2022-10-05T06:00:47.343Z,57.31
2022-10-05T06:03:23.884Z,57.39
2022-10-05T06:05:59.813Z,57.67
2022-10-05T06:08:47.353Z,57.55
2022-10-05T06:11:58.316Z,57.30
2022-10-05T06:14:44.708Z,57.40
2022-10-05T06:17:39.153Z,57.45
2022-10-05T06:20:35.811Z,57.66
2022-10-05T06:23:14.005Z,58.21
2022-10-05T06:26:17.629Z,58.17
2022-10-05T06:28:55.849Z,58.09
2022-10-05T06:31:29.102Z,57.87
2022-10-05T06:34:41.850Z,58.09
2022-10-05T06:37:41.084Z,58.38
2022-10-05T06:40:38.962Z,58.38
2022-10-05T06:43:54.387Z,58.41
2022-10-05T06:46:52.171Z,58.79
2022-10-05T06:49:42.481Z,58.28
2022-10-05T06:52:26.549Z,58.34
2022-10-05T06:55:28.750Z,58.41
2022-10-05T06:58:26.077Z,58.23
2022-10-05T07:01:07.974Z,58.14
2022-10-05T07:03:58.103Z,58.60
2022-10-05T07:07:02.276Z,58.90
2022-10-05T07:10:09.330Z,58.84
2022-10-05T07:13:26.825Z,58.78
2022-10-05T07:16:32.833Z,58.69
2022-10-05T07:19:18.812Z,58.52
2022-10-05T07:22:40.051Z,58.21
2022-10-05T07:25:44.770Z,58.25
2022-10-05T07:28:51.120Z,57.98
2022-10-05T07:31:56.764Z,57.77
2022-10-05T07:34:40.532Z,57.96
2022-10-05T07:37:45.027Z,57.64
2022-10-05T07:40:26.949Z,57.08
2022-10-05T07:43:13.541Z,56.53
2022-10-05T07:46:07.178Z,56.20
2022-10-05T07:48:52.165Z,55.79
2022-10-05T07:51:44.383Z,55.33
2022-10-05T07:54:45.044Z,54.68
2022-10-05T07:57:31.976Z,54.74
2022-10-05T08:00:07.489Z,55.18
2022-10-05T08:02:40.893Z,55.83
2022-10-05T08:05:32.797Z,56.30
2022-10-05T08:08:31.380Z,56.29
2022-10-05T08:11:16.020Z,55.84
2022-10-05T08:13:58.621Z,54.94
2022-10-05T08:16:33.848Z,54.83
2022-10-05T08:19:48.601Z,54.44
2022-10-05T08:22:29.500Z,53.46
2022-10-05T08:25:03.793Z,52.61
2022-10-05T08:27:46.962Z,52.10
2022-10-05T08:30:16.942Z,52.53
2022-10-05T08:33:11.456Z,52.22
2022-10-05T08:35:46.057Z,52.75
2022-10-05T08:38:19.833Z,52.29
2022-10-05T08:41:15.402Z,52.29
2022-10-05T08:44:26.967Z,51.68
2022-10-05T08:47:15.787Z,51.21
2022-10-05T08:50:10.483Z,51.52
2022-10-05T08:53:21.974Z,51.06
2022-10-05T08:56:19.048Z,49.56
2022-10-05T08:59:02.061Z,48.99
2022-10-05T09:02:09.078Z,49.17
2022-10-05T09:04:48.126Z,48.12
2022-10-05T09:07:55.540Z,48.17
2022-10-05T09:10:31.287Z,48.44
2022-10-05T09:14:30.916Z,48.44
2022-10-05T09:17:25.387Z,48.85
2022-10-05T09:19:59.870Z,49.19
2022-10-05T09:23:20.874Z,48.56
2022-10-05T09:26:07.432Z,48.57
2022-10-05T09:28:49.608Z,48.36
2022-10-05T09:32:16.786Z,48.45
2022-10-05T09:35:15.942Z,47.68
2022-10-05T09:38:26.840Z,47.14
2022-10-05T09:41:43.257Z,46.88
2022-10-05T09:44:58.852Z,46.40
2022-10-05T09:48:21.504Z,45.85
2022-10-05T09:51:06.407Z,45.91
2022-10-05T09:53:46.868Z,46.35
2022-10-05T09:59:52.894Z,44.38
2022-10-05T10:03:05.585Z,43.62
2022-10-05T10:06:24.119Z,43.39
2022-10-05T10:09:23.382Z,42.89
2022-10-05T10:12:47.924Z,41.75
2022-10-05T10:15:53.535Z,40.87
2022-10-05T10:18:58.036Z,42.06
2022-10-05T10:22:18.648Z,41.03
2022-10-05T10:25:33.970Z,39.55
2022-10-05T10:28:37.846Z,39.09
2022-10-05T10:31:26.075Z,38.50
2022-10-05T10:34:23.866Z,37.90
2022-10-05T10:36:56.821Z,39.23
2022-10-05T10:39:53.532Z,39.10
2022-10-05T10:42:52.393Z,39.03
2022-10-05T10:45:28.773Z,39.10
2022-10-05T10:48:28.903Z,38.10
2022-10-05T10:51:49.015Z,36.05
2022-10-05T10:54:55.965Z,34.47
2022-10-05T10:57:45.453Z,31.83
2022-10-05T11:01:01.557Z,29.58
2022-10-05T11:03:46.535Z,27.42
2022-10-05T11:06:43.543Z,25.35
2022-10-05T11:10:12.048Z,24.67
2022-10-05T11:13:19.485Z,23.06
2022-10-05T11:16:18.730Z,21.52
2022-10-05T11:19:20.794Z,21.72
2022-10-05T11:22:07.221Z,21.75
2022-10-05T11:25:19.381Z,21.14
2022-10-05T11:28:15.500Z,20.46
2022-10-05T11:30:59.297Z,20.90
2022-10-05T11:34:04.742Z,20.86
2022-10-05T11:37:00.148Z,21.08
2022-10-05T11:39:52.890Z,20.45
2022-10-05T11:42:34.875Z,20.08
2022-10-05T11:45:20.078Z,20.74
2022-10-05T11:48:30.948Z,20.97
2022-10-05T11:51:32.598Z,20.48
2022-10-05T11:54:58.780Z,21.21
2022-10-05T11:57:52.177Z,21.06
2022-10-05T12:01:12.498Z,21.03
2022-10-05T12:04:09.288Z,20.67
2022-10-05T12:07:18.156Z,22.31
2022-10-05T12:10:26.987Z,25.10
2022-10-05T12:13:40.043Z,24.57
2022-10-05T12:16:20.766Z,25.78
2022-10-05T12:19:06.022Z,25.36
2022-10-05T12:21:49.325Z,25.08
2022-10-05T12:24:46.403Z,25.39
2022-10-05T12:27:27.513Z,25.50
2022-10-05T12:30:12.268Z,24.17
2022-10-05T12:32:54.145Z,24.61
2022-10-05T12:36:01.013Z,25.02
2022-10-05T12:38:44.512Z,25.38
2022-10-05T12:41:34.669Z,23.24
2022-10-05T12:44:57.301Z,24.71
2022-10-05T12:47:44.819Z,24.99
2022-10-05T12:50:31.176Z,25.71
2022-10-05T12:53:57.584Z,25.14
2022-10-05T12:56:57.904Z,25.38
2022-10-05T12:59:47.553Z,25.76
2022-10-05T13:02:45.979Z,25.58
2022-10-05T13:05:28.048Z,25.73
2022-10-05T13:08:20.612Z,25.47
2022-10-05T13:11:00.019Z,25.55
2022-10-05T13:13:44.872Z,24.06
2022-10-05T13:16:15.498Z,25.13
2022-10-05T13:19:23.079Z,25.22
2022-10-05T13:22:23.700Z,25.79
2022-10-05T13:25:09.355Z,26.55
2022-10-05T13:27:48.258Z,26.26
2022-10-05T13:30:22.445Z,26.76
2022-10-05T13:33:15.465Z,26.16
2022-10-05T13:36:04.023Z,26.06
2022-10-05T13:38:58.866Z,26.31
2022-10-05T13:41:32.215Z,25.46
2022-10-05T13:44:26.056Z,26.52
2022-10-05T13:47:07.681Z,26.74
2022-10-05T13:50:02.237Z,26.58
2022-10-05T13:52:56.550Z,26.91
2022-10-05T13:56:19.882Z,26.33
2022-10-05T13:59:30.595Z,26.25
2022-10-05T14:02:10.275Z,26.02
2022-10-05T14:04:49.742Z,25.64
2022-10-05T14:07:49.076Z,25.70
2022-10-05T14:10:41.023Z,25.46
2022-10-05T14:13:47.406Z,25.60
2022-10-05T14:16:24.123Z,25.08
2022-10-05T14:19:06.439Z,25.70
2022-10-05T14:22:07.724Z,26.29
2022-10-05T14:24:44.012Z,25.65
2022-10-05T14:27:28.259Z,26.05
2022-10-05T14:30:01.588Z,26.27
2022-10-05T14:32:47.832Z,25.81
2022-10-05T14:35:18.279Z,25.00
2022-10-05T14:37:54.233Z,25.02
2022-10-05T14:40:34.030Z,25.16
2022-10-05T14:43:16.761Z,24.63
2022-10-05T14:46:03.086Z,24.49
2022-10-05T14:48:43.974Z,24.00
2022-10-05T14:51:25.889Z,23.97
2022-10-05T14:54:29.255Z,24.70
2022-10-05T14:57:23.860Z,25.45
2022-10-05T15:00:18.326Z,25.65
2022-10-05T15:03:33.231Z,25.48
2022-10-05T15:06:03.239Z,25.47
2022-10-05T15:08:48.837Z,26.03
2022-10-05T15:11:25.137Z,26.19
2022-10-05T15:13:55.219Z,26.39
2022-10-05T15:16:36.339Z,27.51
2022-10-05T15:19:37.486Z,28.19
2022-10-05T15:22:31.643Z,28.99
2022-10-05T15:25:22.132Z,29.69
2022-10-05T15:28:04.530Z,30.25
2022-10-05T15:30:40.142Z,30.76
2022-10-05T15:33:59.761Z,31.81
2022-10-05T15:36:41.227Z,32.40
2022-10-05T15:39:25.774Z,33.20
2022-10-05T15:42:05.334Z,33.97
2022-10-05T15:44:56.103Z,34.11
2022-10-05T15:47:52.594Z,35.08
2022-10-05T15:50:28.187Z,35.95
2022-10-05T15:53:14.698Z,36.50
2022-10-05T15:56:03.807Z,36.83
2022-10-05T15:58:43.307Z,36.83
2022-10-05T16:01:23.973Z,37.15
2022-10-05T16:04:29.233Z,37.58
2022-10-05T16:07:02.508Z,37.91
2022-10-05T16:09:44.984Z,38.09
2022-10-05T16:12:56.027Z,37.94
2022-10-05T16:15:49.960Z,38.38
2022-10-05T16:18:37.265Z,39.13
2022-10-05T16:21:35.593Z,39.61
2022-10-05T16:24:44.248Z,39.95
2022-10-05T16:27:47.800Z,40.68
2022-10-05T16:30:24.354Z,41.14
2022-10-05T16:33:12.317Z,41.19
2022-10-05T16:36:16.211Z,41.48
2022-10-05T16:39:00.621Z,41.74
2022-10-05T16:42:01.352Z,42.58
2022-10-05T16:44:28.599Z,42.23
2022-10-05T16:47:37.448Z,43.03
2022-10-05T16:50:13.477Z,43.35
2022-10-05T16:52:47.847Z,43.45
2022-10-05T16:55:29.722Z,43.75
2022-10-05T16:58:02.239Z,44.36
2022-10-05T17:00:59.715Z,44.26
2022-10-05T17:04:16.626Z,44.59
2022-10-05T17:07:06.819Z,44.73
2022-10-05T17:10:15.769Z,45.23
2022-10-05T17:12:51.287Z,45.38
2022-10-05T17:15:36.666Z,45.47
2022-10-05T17:18:32.607Z,45.50
2022-10-05T17:21:48.455Z,45.93
2022-10-05T17:24:33.276Z,46.19
2022-10-05T17:27:31.433Z,46.31
2022-10-05T17:30:51.188Z,46.39
2022-10-05T17:33:33.327Z,46.54
2022-10-05T17:36:00.398Z,46.81
2022-10-05T17:38:33.502Z,47.20
2022-10-05T17:41:00.623Z,47.25
2022-10-05T17:43:30.406Z,47.45
2022-10-05T17:46:04.232Z,47.54
2022-10-05T17:48:49.393Z,47.58
2022-10-05T17:51:30.543Z,47.40
2022-10-05T17:53:58.556Z,47.93
2022-10-05T17:56:25.798Z,48.00
2022-10-05T17:58:59.667Z,47.86
2022-10-05T18:01:40.754Z,48.19
2022-10-05T18:04:13.866Z,48.43
2022-10-05T18:07:04.702Z,48.54
2022-10-05T18:09:36.365Z,48.55
2022-10-05T18:12:18.996Z,48.71
2022-10-05T18:15:07.451Z,48.85
2022-10-05T18:17:37.796Z,49.05
2022-10-05T18:20:24.170Z,49.07
2022-10-05T18:22:53.544Z,48.95
2022-10-05T18:25:39.661Z,49.11
2022-10-05T18:28:12.981Z,48.93
2022-10-05T18:31:01.871Z,49.34
2022-10-05T18:34:05.499Z,49.50
2022-10-05T18:37:10.492Z,49.34
2022-10-05T18:40:27.471Z,49.57
2022-10-05T18:43:29.092Z,49.57
2022-10-05T18:46:33.264Z,49.70
2022-10-05T18:49:30.253Z,49.70
2022-10-05T18:52:26.184Z,49.55
2022-10-05T18:55:30.206Z,49.61
2022-10-05T18:58:31.606Z,49.74
2022-10-05T19:01:26.566Z,49.79
2022-10-05T19:04:13.151Z,50.23
2022-10-05T19:07:24.829Z,49.83
2022-10-05T19:10:49.924Z,50.05
2022-10-05T19:13:32.341Z,50.47
2022-10-05T19:16:22.519Z,50.15
2022-10-05T19:19:11.992Z,50.44
2022-10-05T19:22:16.420Z,50.41
2022-10-05T19:25:39.652Z,50.53
2022-10-05T19:28:46.000Z,50.45
2022-10-05T19:31:13.296Z,50.64
2022-10-05T19:34:22.458Z,50.32
2022-10-05T19:37:04.409Z,50.43
2022-10-05T19:40:15.641Z,50.72
2022-10-05T19:42:58.027Z,50.81
2022-10-05T19:45:29.441Z,50.88
2022-10-05T19:48:33.355Z,51.00
2022-10-05T19:51:02.540Z,51.17
2022-10-05T19:53:45.448Z,51.30
2022-10-05T19:56:24.558Z,51.26
2022-10-05T19:58:53.821Z,51.45
2022-10-05T20:01:31.812Z,51.59
2022-10-05T20:03:59.068Z,51.54
2022-10-05T20:06:26.889Z,51.67
2022-10-05T20:08:57.181Z,51.75
2022-10-05T20:11:24.777Z,51.35
2022-10-05T20:13:54.994Z,51.31
2022-10-05T20:16:32.390Z,51.43
2022-10-05T20:19:00.033Z,51.51
2022-10-05T20:21:39.082Z,51.33
2022-10-05T20:24:10.955Z,51.22
2022-10-05T20:27:01.248Z,51.16
2022-10-05T20:29:35.116Z,51.17
2022-10-05T20:32:31.501Z,51.30
2022-10-05T20:34:58.711Z,51.50
2022-10-05T20:37:26.053Z,51.78
2022-10-05T20:39:53.232Z,51.76
2022-10-05T20:42:21.643Z,51.92
2022-10-05T20:44:52.911Z,51.74
2022-10-05T20:47:23.447Z,51.81
2022-10-05T20:49:50.699Z,51.99
2022-10-05T20:52:17.867Z,52.02
2022-10-05T20:57:13.621Z,52.31
2022-10-05T20:59:40.840Z,52.34
2022-10-05T21:02:08.034Z,52.30
2022-10-05T21:04:40.238Z,52.16
2022-10-05T21:07:08.689Z,51.93
2022-10-05T21:09:35.866Z,52.13
2022-10-05T21:12:03.137Z,52.25
2022-10-05T21:14:30.294Z,52.26
2022-10-05T21:16:57.513Z,52.57
2022-10-05T21:19:24.722Z,52.36
2022-10-05T21:21:52.306Z,52.39
2022-10-05T21:24:19.484Z,52.51
2022-10-05T21:26:46.663Z,52.61
2022-10-05T21:29:13.851Z,52.67
2022-10-05T21:31:41.738Z,52.72
2022-10-05T21:34:09.351Z,52.80
2022-10-05T21:36:36.590Z,52.69
2022-10-05T21:39:04.062Z,52.83
2022-10-05T21:41:31.251Z,52.84
2022-10-05T21:43:58.723Z,52.76
2022-10-05T21:46:26.279Z,52.86
2022-10-05T21:48:54.707Z,52.94
2022-10-05T21:51:26.700Z,52.75
2022-10-05T21:54:02.430Z,52.79
2022-10-05T21:56:35.800Z,52.79
2022-10-05T21:59:09.008Z,52.90
2022-10-05T22:01:36.185Z,52.97
2022-10-05T22:04:07.137Z,53.01
2022-10-05T22:06:35.990Z,53.06
2022-10-05T22:09:04.564Z,53.23
2022-10-05T22:11:32.941Z,53.19
2022-10-05T22:14:00.587Z,53.29
2022-10-05T22:16:28.536Z,53.31
2022-10-05T22:18:56.124Z,53.23
2022-10-05T22:21:23.520Z,53.45
2022-10-05T22:23:50.782Z,53.07
2022-10-05T22:26:22.254Z,53.29
2022-10-05T22:28:52.472Z,53.06
2022-10-05T22:31:19.897Z,53.25
2022-10-05T22:33:47.107Z,53.36
2022-10-05T22:36:14.334Z,53.45
2022-10-05T22:38:41.471Z,53.20
2022-10-05T22:41:14.672Z,53.32
2022-10-05T22:43:41.792Z,53.32
2022-10-05T22:46:13.778Z,53.54
2022-10-05T22:48:41.109Z,53.48
2022-10-05T22:51:08.916Z,53.36
2022-10-05T22:53:36.387Z,53.22
2022-10-05T22:56:12.647Z,53.48
2022-10-05T22:58:41.829Z,53.58
2022-10-05T23:01:13.388Z,53.58
2022-10-05T23:03:41.354Z,53.47
2022-10-05T23:06:18.255Z,53.46
2022-10-05T23:08:46.965Z,53.91
2022-10-05T23:11:21.029Z,54.13
2022-10-05T23:13:48.299Z,54.21
2022-10-05T23:16:21.741Z,53.97
2022-10-05T23:18:51.175Z,54.20
2022-10-05T23:21:21.706Z,54.19
2022-10-05T23:23:50.126Z,54.36
2022-10-05T23:26:21.330Z,54.75
2022-10-05T23:28:49.555Z,54.85
2022-10-05T23:31:21.372Z,54.85
2022-10-05T23:33:49.225Z,54.72
2022-10-05T23:36:22.622Z,54.51
2022-10-05T23:38:50.482Z,54.20
2022-10-05T23:41:18.508Z,54.33
2022-10-05T23:43:46.155Z,54.25
2022-10-05T23:46:13.850Z,54.21
2022-10-05T23:48:41.145Z,54.33
2022-10-05T23:51:11.759Z,54.28
2022-10-05T23:53:38.998Z,54.11
2022-10-05T23:56:06.656Z,54.14
2022-10-05T23:58:34.171Z,54.39
